createdAt,value
2022-07-31T00:01:15.190Z,14.88
2022-07-31T00:03:55.462Z,15.00
2022-07-31T00:06:31.873Z,15.95
2022-07-31T00:09:48.902Z,14.70
2022-07-31T00:12:20.248Z,14.18
2022-07-31T00:15:00.866Z,13.43
2022-07-31T00:17:34.185Z,14.88
2022-07-31T00:20:14.283Z,14.23
2022-07-31T00:22:54.989Z,14.25
2022-07-31T00:25:45.893Z,12.68
2022-07-31T00:28:26.202Z,13.02
2022-07-31T00:31:17.312Z,13.30
2022-07-31T00:33:58.111Z,11.50
2022-07-31T00:36:29.979Z,10.95
2022-07-31T00:39:16.708Z,8.65
2022-07-31T00:42:02.204Z,9.25
2022-07-31T00:44:47.678Z,8.82
2022-07-31T00:47:17.536Z,8.70
2022-07-31T00:50:04.806Z,9.35
2022-07-31T00:52:52.463Z,9.20
2022-07-31T00:55:51.033Z,7.50
2022-07-31T00:58:26.872Z,8.40
2022-07-31T01:01:04.796Z,9.05
2022-07-31T01:03:51.435Z,8.77
2022-07-31T01:06:34.382Z,7.20
2022-07-31T01:09:19.151Z,6.38
2022-07-31T01:12:18.923Z,6.18
2022-07-31T01:15:00.188Z,5.50
2022-07-31T01:17:41.075Z,5.35
2022-07-31T01:20:21.191Z,4.88
2022-07-31T01:23:10.155Z,5.32
2022-07-31T01:26:03.921Z,4.68
2022-07-31T01:29:24.175Z,5.07
2022-07-31T01:32:21.377Z,5.07
2022-07-31T01:35:24.173Z,4.97
2022-07-31T01:38:11.704Z,5.55
2022-07-31T01:40:47.149Z,5.43
2022-07-31T01:43:38.175Z,5.70
2022-07-31T01:46:23.373Z,5.07
2022-07-31T01:49:00.997Z,4.82
2022-07-31T01:51:48.809Z,5.35
2022-07-31T01:54:24.369Z,4.70
2022-07-31T01:57:09.317Z,5.03
2022-07-31T01:59:55.433Z,4.45
2022-07-31T02:03:09.923Z,4.57
2022-07-31T02:05:56.806Z,4.35
2022-07-31T02:08:46.009Z,4.25
2022-07-31T02:11:27.594Z,4.63
2022-07-31T02:14:09.467Z,4.07
2022-07-31T02:16:45.011Z,3.45
2022-07-31T02:19:26.873Z,3.87
2022-07-31T02:22:09.732Z,3.75
2022-07-31T02:24:44.407Z,3.60
2022-07-31T02:27:57.511Z,3.75
2022-07-31T02:30:27.289Z,3.53
2022-07-31T02:33:14.100Z,3.35
2022-07-31T02:35:53.215Z,3.58
2022-07-31T02:38:33.745Z,2.90
2022-07-31T02:41:13.885Z,2.47
2022-07-31T02:43:58.981Z,2.75
2022-07-31T02:46:42.535Z,2.95
2022-07-31T02:49:30.562Z,3.28
2022-07-31T02:52:10.107Z,2.90
2022-07-31T02:54:47.220Z,2.70
2022-07-31T02:57:20.317Z,3.08
2022-07-31T02:59:58.744Z,3.05
2022-07-31T03:02:39.772Z,2.70
2022-07-31T03:05:20.612Z,3.20
2022-07-31T03:08:04.700Z,3.08
2022-07-31T03:10:54.727Z,2.88
2022-07-31T03:13:41.315Z,2.50
2022-07-31T03:16:16.630Z,2.53
2022-07-31T03:19:02.476Z,3.03
2022-07-31T03:21:49.056Z,2.70
2022-07-31T03:24:28.374Z,2.60
2022-07-31T03:27:03.917Z,2.78
2022-07-31T03:29:57.957Z,2.60
2022-07-31T03:32:39.219Z,2.80
2022-07-31T03:35:18.465Z,2.80
2022-07-31T03:38:41.822Z,2.33
2022-07-31T03:41:06.352Z,2.58
2022-07-31T03:43:47.986Z,2.97
2022-07-31T03:46:42.218Z,2.65
2022-07-31T03:49:21.235Z,2.70
2022-07-31T03:51:59.725Z,2.75
2022-07-31T03:54:43.048Z,2.40
2022-07-31T03:57:38.783Z,2.42
2022-07-31T04:00:20.994Z,2.33
2022-07-31T04:02:59.154Z,2.20
2022-07-31T04:05:55.209Z,2.50
2022-07-31T04:08:33.855Z,2.33
2022-07-31T04:11:16.455Z,3.03
2022-07-31T04:13:57.729Z,2.88
2022-07-31T04:16:41.117Z,2.80
2022-07-31T04:19:32.798Z,2.60
2022-07-31T04:22:03.326Z,2.63
2022-07-31T04:24:41.462Z,3.50
2022-07-31T04:27:30.249Z,3.90
2022-07-31T04:30:15.187Z,3.92
2022-07-31T04:32:59.454Z,4.38
2022-07-31T04:35:35.254Z,5.55
2022-07-31T04:38:13.954Z,6.15
2022-07-31T04:40:51.856Z,6.47
2022-07-31T04:43:30.526Z,7.22
2022-07-31T04:46:17.742Z,5.82
2022-07-31T04:49:02.208Z,6.25
2022-07-31T04:51:46.222Z,7.30
2022-07-31T04:54:26.082Z,8.35
2022-07-31T04:57:09.345Z,8.85
2022-07-31T05:00:00.459Z,8.20
2022-07-31T05:02:41.726Z,8.02
2022-07-31T05:05:23.581Z,8.63
2022-07-31T05:07:53.204Z,8.60
2022-07-31T05:10:53.469Z,7.60
2022-07-31T05:13:38.095Z,9.52
2022-07-31T05:16:17.038Z,7.32
2022-07-31T05:19:13.922Z,7.75
2022-07-31T05:22:15.782Z,9.25
2022-07-31T05:27:53.173Z,11.70
2022-07-31T05:30:39.248Z,16.95
2022-07-31T05:33:19.082Z,21.27
2022-07-31T05:35:56.935Z,26.17
2022-07-31T05:38:31.075Z,23.58
2022-07-31T05:41:38.466Z,31.95
2022-07-31T05:45:01.193Z,26.38
2022-07-31T05:47:39.862Z,33.05
2022-07-31T05:50:24.191Z,37.05
2022-07-31T05:52:57.405Z,38.92
2022-07-31T05:56:16.143Z,32.08
2022-07-31T05:58:55.214Z,32.08
2022-07-31T06:01:30.700Z,46.67
2022-07-31T06:04:14.290Z,41.42
2022-07-31T06:06:55.996Z,38.58
2022-07-31T06:09:36.908Z,37.97
2022-07-31T06:12:04.857Z,43.58
2022-07-31T06:14:47.501Z,36.47
2022-07-31T06:17:43.984Z,34.53
2022-07-31T06:20:46.714Z,42.42
2022-07-31T06:26:13.199Z,26.08
2022-07-31T06:28:55.075Z,44.78
2022-07-31T06:31:28.181Z,19.33
2022-07-31T06:34:21.140Z,32.08
2022-07-31T06:37:01.002Z,21.60
2022-07-31T06:39:55.806Z,36.63
2022-07-31T06:42:57.201Z,19.70
2022-07-31T06:49:25.116Z,13.70
2022-07-31T06:52:09.220Z,19.05
2022-07-31T06:54:45.595Z,22.23
2022-07-31T06:57:22.179Z,28.63
2022-07-31T06:59:51.330Z,35.53
2022-07-31T07:02:29.326Z,35.05
2022-07-31T07:05:07.953Z,17.85
2022-07-31T07:07:42.516Z,23.92
2022-07-31T07:13:02.575Z,18.77
2022-07-31T07:15:44.405Z,26.30
2022-07-31T07:18:23.637Z,26.40
2022-07-31T07:20:58.254Z,23.65
2022-07-31T07:23:34.688Z,14.45
2022-07-31T07:26:32.622Z,27.25
2022-07-31T07:29:18.197Z,12.63
2022-07-31T07:32:03.102Z,13.00
2022-07-31T07:34:59.834Z,12.13
2022-07-31T07:38:19.649Z,16.45
2022-07-31T07:41:06.153Z,11.25
2022-07-31T07:43:45.791Z,24.83
2022-07-31T07:46:39.166Z,26.08
2022-07-31T07:49:24.243Z,8.30
2022-07-31T07:52:22.453Z,7.03
2022-07-31T07:55:23.972Z,4.97
2022-07-31T07:58:28.750Z,4.72
2022-07-31T08:01:16.250Z,4.60
2022-07-31T08:03:52.249Z,4.55
2022-07-31T08:06:28.010Z,3.05
2022-07-31T08:09:04.355Z,3.00
2022-07-31T08:11:58.214Z,2.10
2022-07-31T08:14:51.393Z,2.50
2022-07-31T08:17:47.765Z,2.28
2022-07-31T08:20:20.665Z,2.38
2022-07-31T08:22:57.305Z,2.15
2022-07-31T08:25:39.231Z,2.00
2022-07-31T08:28:25.818Z,2.13
2022-07-31T08:30:55.398Z,3.97
2022-07-31T08:33:29.423Z,2.20
2022-07-31T08:36:14.740Z,3.40
2022-07-31T08:38:52.189Z,2.08
2022-07-31T08:41:50.316Z,2.38
2022-07-31T08:44:30.997Z,1.58
2022-07-31T08:47:07.194Z,2.05
2022-07-31T08:49:47.232Z,2.00
2022-07-31T08:52:26.168Z,1.90
2022-07-31T08:55:24.616Z,1.90
2022-07-31T08:58:21.336Z,1.80
2022-07-31T09:01:05.960Z,1.83
2022-07-31T09:03:45.177Z,1.70
2022-07-31T09:06:20.866Z,1.65
2022-07-31T09:08:50.751Z,1.70
2022-07-31T09:11:29.384Z,1.40
2022-07-31T09:14:53.511Z,1.30
2022-07-31T09:17:41.610Z,1.88
2022-07-31T09:20:36.177Z,1.90
2022-07-31T09:23:19.235Z,1.80
2022-07-31T09:26:07.640Z,1.98
2022-07-31T09:28:53.512Z,1.40
2022-07-31T09:31:42.141Z,1.73
2022-07-31T09:37:28.687Z,1.40
2022-07-31T09:44:09.876Z,1.55
2022-07-31T09:46:51.482Z,1.30
2022-07-31T09:49:34.494Z,1.45
2022-07-31T09:52:22.215Z,2.10
2022-07-31T09:55:23.653Z,1.92
2022-07-31T09:58:05.171Z,2.00
2022-07-31T10:00:56.502Z,2.00
2022-07-31T10:03:36.396Z,1.90
2022-07-31T10:06:19.696Z,1.88
2022-07-31T10:09:02.766Z,1.67
2022-07-31T10:12:08.220Z,1.60
2022-07-31T10:14:49.969Z,1.52
2022-07-31T10:17:47.191Z,1.85
2022-07-31T10:20:58.287Z,1.75
2022-07-31T10:23:58.444Z,1.38
2022-07-31T10:27:00.680Z,1.58
2022-07-31T10:29:45.331Z,1.60
2022-07-31T10:32:28.631Z,1.60
2022-07-31T10:35:22.842Z,1.50
2022-07-31T10:38:30.691Z,1.27
2022-07-31T10:41:49.840Z,1.38
2022-07-31T10:44:49.815Z,1.50
2022-07-31T10:47:35.994Z,1.58
2022-07-31T10:50:38.609Z,1.50
2022-07-31T10:53:50.833Z,1.30
2022-07-31T10:57:02.993Z,1.45
2022-07-31T11:00:18.077Z,1.10
2022-07-31T11:03:38.943Z,1.20
2022-07-31T11:06:57.889Z,1.58
2022-07-31T11:09:50.539Z,1.00
2022-07-31T11:13:14.177Z,1.83
2022-07-31T11:16:22.334Z,1.55
2022-07-31T11:19:41.344Z,1.50
2022-07-31T11:22:32.563Z,1.73
2022-07-31T11:25:27.320Z,1.55
2022-07-31T11:28:18.966Z,1.30
2022-07-31T11:31:07.218Z,1.58
2022-07-31T11:33:49.319Z,1.65
2022-07-31T11:36:24.699Z,1.52
2022-07-31T11:39:04.379Z,1.40
2022-07-31T11:41:48.629Z,1.58
2022-07-31T11:44:30.218Z,1.98
2022-07-31T11:48:09.904Z,1.70
2022-07-31T11:50:16.287Z,1.83
2022-07-31T11:53:01.607Z,1.83
2022-07-31T11:55:57.068Z,2.10
2022-07-31T11:58:42.178Z,1.80
2022-07-31T12:01:42.887Z,1.65
2022-07-31T12:04:18.261Z,2.00
2022-07-31T12:07:07.942Z,1.80
2022-07-31T12:10:02.230Z,2.33
2022-07-31T12:12:45.150Z,2.00
2022-07-31T12:15:25.389Z,3.10
2022-07-31T12:18:07.145Z,2.22
2022-07-31T12:20:43.126Z,1.95
2022-07-31T12:23:41.145Z,2.15
2022-07-31T12:26:32.920Z,2.10
2022-07-31T12:29:11.900Z,2.58
2022-07-31T12:31:52.567Z,2.30
2022-07-31T12:34:45.575Z,2.10
2022-07-31T12:37:26.615Z,2.40
2022-07-31T12:40:08.091Z,2.45
2022-07-31T12:42:53.815Z,2.50
2022-07-31T12:45:44.121Z,2.05
2022-07-31T12:48:36.612Z,2.10
2022-07-31T12:51:44.077Z,2.30
2022-07-31T12:54:39.382Z,2.72
2022-07-31T12:57:14.895Z,2.30
2022-07-31T12:59:55.242Z,2.97
2022-07-31T13:02:42.335Z,2.80
2022-07-31T13:05:21.162Z,2.72
2022-07-31T13:07:59.229Z,2.60
2022-07-31T13:10:32.609Z,3.10
2022-07-31T13:13:08.173Z,2.70
2022-07-31T13:15:44.198Z,2.95
2022-07-31T13:18:30.061Z,2.53
2022-07-31T13:21:16.503Z,2.85
2022-07-31T13:23:58.212Z,2.42
2022-07-31T13:26:42.521Z,2.95
2022-07-31T13:29:18.196Z,2.53
2022-07-31T13:32:02.397Z,2.60
2022-07-31T13:34:43.168Z,2.45
2022-07-31T13:37:17.240Z,2.90
2022-07-31T13:40:00.482Z,2.85
2022-07-31T13:42:41.646Z,2.75
2022-07-31T13:45:11.876Z,2.88
2022-07-31T13:48:00.435Z,2.90
2022-07-31T13:50:39.703Z,2.70
2022-07-31T13:53:22.197Z,2.42
2022-07-31T13:56:09.274Z,2.60
2022-07-31T13:58:42.795Z,2.40
2022-07-31T14:02:03.296Z,2.38
2022-07-31T14:04:39.292Z,2.63
2022-07-31T14:07:15.187Z,2.35
2022-07-31T14:09:57.844Z,2.63
2022-07-31T14:12:40.178Z,1.90
2022-07-31T14:15:30.116Z,2.38
2022-07-31T14:18:11.137Z,1.98
2022-07-31T14:21:01.166Z,2.40
2022-07-31T14:23:41.944Z,2.28
2022-07-31T14:26:18.257Z,1.60
2022-07-31T14:28:58.166Z,2.03
2022-07-31T14:31:35.214Z,2.42
2022-07-31T14:34:19.051Z,1.73
2022-07-31T14:37:22.887Z,1.70
2022-07-31T14:39:59.059Z,2.60
2022-07-31T14:42:35.723Z,2.03
2022-07-31T14:45:16.169Z,2.38
2022-07-31T14:48:08.885Z,2.03
2022-07-31T14:50:57.389Z,2.13
2022-07-31T14:53:45.563Z,2.40
2022-07-31T14:56:34.765Z,2.25
2022-07-31T14:59:27.441Z,2.40
2022-07-31T15:02:06.179Z,2.30
2022-07-31T15:04:49.287Z,2.45
2022-07-31T15:07:35.377Z,2.20
2022-07-31T15:10:18.592Z,2.20
2022-07-31T15:12:56.661Z,2.42
2022-07-31T15:15:34.572Z,2.28
2022-07-31T15:18:25.738Z,1.88
2022-07-31T15:21:09.142Z,1.75
2022-07-31T15:23:50.153Z,1.83
2022-07-31T15:26:34.096Z,1.90
2022-07-31T15:29:10.192Z,1.77
2022-07-31T15:31:55.386Z,1.70
2022-07-31T15:34:35.585Z,1.30
2022-07-31T15:37:08.569Z,1.40
2022-07-31T15:40:01.357Z,1.50
2022-07-31T15:42:42.358Z,1.50
2022-07-31T15:45:25.171Z,1.63
2022-07-31T15:48:10.119Z,1.33
2022-07-31T15:50:51.241Z,1.40
2022-07-31T15:53:27.296Z,1.67
2022-07-31T15:56:12.187Z,1.88
2022-07-31T15:58:43.930Z,1.25
2022-07-31T16:01:20.100Z,1.60
2022-07-31T16:04:03.040Z,1.83
2022-07-31T16:06:52.106Z,1.70
2022-07-31T16:10:03.816Z,1.67
2022-07-31T16:15:28.761Z,1.73
2022-07-31T16:18:01.231Z,1.40
2022-07-31T16:20:39.530Z,1.30
2022-07-31T16:23:35.087Z,1.70
2022-07-31T16:26:07.876Z,1.55
2022-07-31T16:28:40.615Z,1.65
2022-07-31T16:31:30.166Z,1.35
2022-07-31T16:34:14.651Z,1.27
2022-07-31T16:36:53.300Z,1.48
2022-07-31T16:39:37.175Z,1.85
2022-07-31T16:42:26.372Z,1.60
2022-07-31T16:45:10.259Z,1.85
2022-07-31T16:47:45.747Z,1.70
2022-07-31T16:50:32.391Z,1.60
2022-07-31T16:54:11.366Z,1.75
2022-07-31T16:56:37.673Z,1.58
2022-07-31T16:59:15.611Z,1.85
2022-07-31T17:02:00.140Z,1.90
2022-07-31T17:04:48.397Z,1.55
2022-07-31T17:07:31.205Z,1.70
2022-07-31T17:10:12.157Z,1.98
2022-07-31T17:15:37.025Z,2.00
2022-07-31T17:18:17.663Z,1.90
2022-07-31T17:20:59.915Z,1.50
2022-07-31T17:23:44.316Z,1.90
2022-07-31T17:26:21.542Z,1.85
2022-07-31T17:29:08.499Z,1.33
2022-07-31T17:31:43.914Z,1.50
2022-07-31T17:34:25.157Z,1.80
2022-07-31T17:37:00.439Z,1.70
2022-07-31T17:39:30.851Z,1.73
2022-07-31T17:42:23.699Z,1.55
2022-07-31T17:45:18.511Z,1.58
2022-07-31T17:48:02.505Z,1.80
2022-07-31T17:50:43.408Z,1.85
2022-07-31T17:53:13.129Z,1.75
2022-07-31T17:55:45.177Z,1.80
2022-07-31T17:58:18.160Z,1.98
2022-07-31T18:01:12.318Z,1.60
2022-07-31T18:03:55.328Z,1.90
2022-07-31T18:06:37.156Z,1.70
2022-07-31T18:09:22.110Z,1.67
2022-07-31T18:12:13.402Z,1.67
2022-07-31T18:14:53.439Z,2.10
2022-07-31T18:17:33.000Z,2.03
2022-07-31T18:20:08.923Z,2.00
2022-07-31T18:22:49.794Z,1.90
2022-07-31T18:25:25.195Z,2.10
2022-07-31T18:28:11.748Z,1.70
2022-07-31T18:31:01.690Z,1.90
2022-07-31T18:33:44.837Z,2.10
2022-07-31T18:36:32.188Z,2.05
2022-07-31T18:39:11.002Z,2.00
2022-07-31T18:41:49.244Z,2.20
2022-07-31T18:44:33.317Z,1.77
2022-07-31T18:47:26.574Z,1.80
2022-07-31T18:51:01.669Z,1.85
2022-07-31T18:53:20.146Z,1.95
2022-07-31T18:55:55.668Z,2.10
2022-07-31T18:58:29.421Z,2.08
2022-07-31T19:01:03.863Z,2.22
2022-07-31T19:03:43.204Z,1.73
2022-07-31T19:06:18.746Z,2.22
2022-07-31T19:08:56.057Z,2.20
2022-07-31T19:11:25.200Z,2.13
2022-07-31T19:14:21.982Z,1.98
2022-07-31T19:16:59.950Z,1.92
2022-07-31T19:19:42.549Z,2.10
2022-07-31T19:22:29.971Z,1.95
2022-07-31T19:24:56.894Z,2.15
2022-07-31T19:27:48.072Z,1.77
2022-07-31T19:30:49.747Z,2.25
2022-07-31T19:33:33.776Z,2.08
2022-07-31T19:38:58.314Z,2.45
2022-07-31T19:41:34.520Z,2.22
2022-07-31T19:44:18.292Z,2.08
2022-07-31T19:46:45.259Z,2.15
2022-07-31T19:49:17.560Z,1.83
2022-07-31T19:51:59.358Z,2.55
2022-07-31T19:54:40.000Z,2.60
2022-07-31T19:57:24.735Z,2.42
2022-07-31T19:59:54.200Z,2.53
2022-07-31T20:02:23.777Z,2.53
2022-07-31T20:05:02.343Z,2.47
2022-07-31T20:07:33.322Z,2.70
2022-07-31T20:10:01.875Z,2.60
2022-07-31T20:12:44.729Z,2.55
2022-07-31T20:15:13.222Z,2.50
2022-07-31T20:17:45.839Z,2.75
2022-07-31T20:20:34.500Z,2.42
2022-07-31T20:23:13.643Z,3.03
2022-07-31T20:25:43.351Z,2.60
2022-07-31T20:28:16.059Z,3.03
2022-07-31T20:30:51.916Z,2.90
2022-07-31T20:33:30.263Z,2.53
2022-07-31T20:35:57.301Z,2.47
2022-07-31T20:38:27.524Z,2.45
2022-07-31T20:41:14.893Z,2.60
2022-07-31T20:43:50.454Z,2.78
2022-07-31T20:46:28.356Z,2.40
2022-07-31T20:48:56.458Z,2.80
2022-07-31T20:51:36.177Z,2.70
2022-07-31T20:54:13.756Z,2.70
2022-07-31T20:56:42.651Z,2.78
2022-07-31T20:59:30.296Z,2.80
2022-07-31T21:02:03.645Z,3.00
2022-07-31T21:04:41.831Z,2.70
2022-07-31T21:07:08.945Z,2.63
2022-07-31T21:09:40.394Z,2.55
2022-07-31T21:12:29.597Z,2.55
2022-07-31T21:15:27.185Z,2.95
2022-07-31T21:18:08.204Z,2.90
2022-07-31T21:20:50.837Z,2.90
2022-07-31T21:23:30.430Z,3.10
2022-07-31T21:25:58.690Z,2.60
2022-07-31T21:28:31.431Z,2.38
2022-07-31T21:31:08.065Z,2.45
2022-07-31T21:33:57.604Z,2.10
2022-07-31T21:36:41.307Z,2.33
2022-07-31T21:39:18.560Z,2.35
2022-07-31T21:42:01.078Z,2.45
2022-07-31T21:44:39.252Z,1.95
2022-07-31T21:47:14.690Z,2.50
2022-07-31T21:49:49.561Z,2.33
2022-07-31T21:52:41.654Z,2.30
2022-07-31T21:55:21.142Z,2.58
2022-07-31T21:58:00.129Z,2.28
2022-07-31T22:00:34.031Z,2.60
2022-07-31T22:03:09.400Z,2.20
2022-07-31T22:06:06.269Z,2.45
2022-07-31T22:08:42.602Z,2.30
2022-07-31T22:11:23.517Z,2.38
2022-07-31T22:14:04.477Z,2.70
2022-07-31T22:16:37.159Z,2.20
2022-07-31T22:19:05.000Z,2.30
2022-07-31T22:21:35.983Z,2.10
2022-07-31T22:24:06.628Z,2.25
2022-07-31T22:26:36.636Z,2.35
2022-07-31T22:29:08.131Z,2.53
2022-07-31T22:31:51.980Z,2.08
2022-07-31T22:34:37.212Z,2.70
2022-07-31T22:39:45.620Z,2.58
2022-07-31T22:42:23.533Z,3.13
2022-07-31T22:44:59.127Z,2.58
2022-07-31T22:47:41.800Z,3.13
2022-07-31T22:50:25.224Z,2.58
2022-07-31T22:53:07.054Z,2.60
2022-07-31T22:55:48.793Z,2.85
2022-07-31T22:58:35.123Z,2.70
2022-07-31T23:01:16.407Z,2.75
2022-07-31T23:03:48.781Z,2.80
2022-07-31T23:06:32.864Z,2.92
2022-07-31T23:09:15.027Z,2.70
2022-07-31T23:11:50.088Z,2.60
2022-07-31T23:14:20.553Z,3.00
2022-07-31T23:16:49.579Z,2.95
2022-07-31T23:19:39.384Z,2.55
2022-07-31T23:22:12.301Z,3.22
2022-07-31T23:24:50.945Z,3.63
2022-07-31T23:27:23.420Z,5.25
2022-07-31T23:29:55.838Z,5.35
2022-07-31T23:32:23.224Z,6.43
2022-07-31T23:35:13.513Z,7.95
2022-07-31T23:37:51.926Z,7.13
2022-07-31T23:40:24.687Z,6.72
2022-07-31T23:42:51.559Z,6.75
2022-07-31T23:45:18.933Z,7.30
2022-07-31T23:47:58.851Z,6.57
2022-07-31T23:50:34.512Z,7.25
2022-07-31T23:53:18.337Z,7.25
2022-07-31T23:55:53.842Z,6.85
2022-07-31T23:58:31.059Z,6.97
